ESSA

Stockholm-Arlanda Airport

Stockholm, Sweden
METAR ESSA 221920Z 26004KT CAVOK 21/11 Q1008 NOSIG
Observed Flight Rules
Jul-22 @ 19:20 UTC (27 minutes ago) Visual Flight Rules
Wind Visibility Clouds
260° at 4 knots 10,000+ meters
  • Clear skies
Temperatures Readings
Current 21°C / 70°F
Dewpoint 11°C / 52°F
Humidity 53%
Altimeter 29.76" Hg
Pressure 1008 hPa
Elevation 61
METAR ESSA 221920Z 26004KT CAVOK 21/11 Q1008 NOSIG
Observed Flight Rules
Jul-22 @ 19:20 UTC
(27 minutes ago)
VFR
Wind Visibility
260° at 4 knots 10,000+ meters
Clouds
  • Clear skies
Temperature Dewpoint
21°C / 70°F 11°C / 52°F
Humidity Altimeter Pressure
53% 29.76" Hg 1008 hPa